Time;durP1;ratioP1;P1;durP2;ratioP2;P2;SDS_P1;SDS_P2;PMS_P1;PMS_P2;Temp;Humidity;BMP_temperature;BMP_pressure;BME280_temperature;BME280_humidity;BME280_pressure;Samples;Min_cycle;Max_cycle;Signal;HPM_P1;HPM_P2
2023/06/09 00:02:03;;;;;;;3.97;2.77;;;14.00;98.40;;;;;;5117387;27;20945;-68
2023/06/09 00:04:33;;;;;;;4.30;2.93;;;14.00;98.70;;;;;;5105469;27;20631;-69
2023/06/09 00:07:01;;;;;;;3.60;3.30;;;14.00;98.70;;;;;;5115671;27;20645;-69
2023/06/09 00:09:28;;;;;;;3.10;2.70;;;13.90;99.00;;;;;;5120196;27;21245;-68
2023/06/09 00:11:55;;;;;;;3.90;2.90;;;13.90;98.80;;;;;;5101059;27;20646;-68
2023/06/09 00:14:22;;;;;;;3.30;2.70;;;13.90;99.00;;;;;;5120054;27;20628;-69
2023/06/09 00:16:49;;;;;;;4.23;3.07;;;13.80;98.80;;;;;;5119996;27;20672;-69
2023/06/09 00:19:17;;;;;;;3.80;3.30;;;14.00;98.40;;;;;;5111830;27;20664;-68
2023/06/09 00:21:49;;;;;;;3.17;2.87;;;14.00;97.70;;;;;;5113349;27;20676;-68
2023/06/09 00:24:16;;;;;;;5.70;3.30;;;13.90;97.70;;;;;;5119765;27;20768;-68
2023/06/09 00:26:43;;;;;;;3.67;3.20;;;13.80;98.20;;;;;;5107725;27;20643;-68
2023/06/09 00:29:10;;;;;;;4.47;3.03;;;13.90;97.60;;;;;;5115984;27;21013;-68
2023/06/09 00:31:37;;;;;;;3.77;3.37;;;13.90;97.50;;;;;;5114660;27;20674;-69
2023/06/09 00:34:03;;;;;;;4.20;3.57;;;13.80;98.20;;;;;;5119939;27;20628;-69
2023/06/09 00:36:30;;;;;;;3.40;3.20;;;13.60;98.60;;;;;;5122703;27;20655;-69
2023/06/09 00:38:58;;;;;;;5.10;3.20;;;13.60;99.30;;;;;;5115510;27;20951;-68
2023/06/09 00:41:25;;;;;;;3.00;2.63;;;13.60;99.60;;;;;;5110487;27;20862;-68
2023/06/09 00:43:53;;;;;;;4.17;3.77;;;13.70;99.50;;;;;;5098093;27;20631;-68
2023/06/09 00:46:20;;;;;;;4.70;2.93;;;13.70;98.80;;;;;;5118938;27;21029;-69
2023/06/09 00:48:48;;;;;;;5.03;3.30;;;13.70;98.00;;;;;;5114932;27;20628;-69
2023/06/09 00:51:15;;;;;;;3.80;3.10;;;13.80;98.20;;;;;;5115168;27;20676;-68
2023/06/09 00:53:41;;;;;;;6.77;3.40;;;13.80;97.50;;;;;;5119933;27;20619;-68
2023/06/09 00:56:12;;;;;;;3.50;3.03;;;13.80;97.70;;;;;;5115179;27;20650;-69
2023/06/09 00:58:39;;;;;;;3.63;2.93;;;13.80;97.80;;;;;;5113160;27;20667;-68
2023/06/09 01:01:05;;;;;;;2.60;2.40;;;13.60;98.50;;;;;;5117157;27;22684;-68
2023/06/09 01:03:32;;;;;;;6.50;4.17;;;13.50;99.20;;;;;;5118438;27;20625;-69
2023/06/09 01:06:09;;;;;;;5.03;2.97;;;13.50;99.60;;;;;;5113026;27;20655;-68
2023/06/09 01:08:42;;;;;;;4.93;3.67;;;13.50;99.80;;;;;;5111771;27;20622;-68
2023/06/09 01:11:17;;;;;;;3.50;3.20;;;13.50;99.90;;;;;;5113912;27;20689;-68
2023/06/09 01:13:56;;;;;;;6.10;4.43;;;13.50;99.90;;;;;;5102994;27;21022;-68
2023/06/09 01:16:33;;;;;;;3.97;3.10;;;13.60;99.30;;;;;;5102827;27;21238;-69
2023/06/09 01:19:05;;;;;;;4.10;3.37;;;13.60;98.70;;;;;;5119566;27;20672;-69
2023/06/09 01:21:40;;;;;;;4.40;3.17;;;13.60;98.50;;;;;;5112113;27;20651;-69
2023/06/09 01:24:17;;;;;;;3.87;3.10;;;13.50;98.80;;;;;;5120388;27;20724;-69
2023/06/09 01:26:50;;;;;;;4.90;3.63;;;13.40;99.70;;;;;;5104958;28;20730;-68
2023/06/09 01:29:20;;;;;;;4.50;3.23;;;13.60;99.60;;;;;;5115581;28;20742;-68
2023/06/09 01:31:48;;;;;;;3.60;3.13;;;13.60;99.20;;;;;;5113376;28;20709;-68
2023/06/09 01:34:15;;;;;;;3.40;2.93;;;13.40;99.40;;;;;;5117662;28;21097;-69
2023/06/09 01:36:43;;;;;;;4.30;3.80;;;13.20;99.90;;;;;;5118861;27;20681;-68
2023/06/09 01:39:11;;;;;;;2.97;2.67;;;13.20;99.90;;;;;;5112899;28;20678;-68
2023/06/09 01:41:39;;;;;;;3.37;3.07;;;13.30;99.30;;;;;;5109199;28;20657;-68
2023/06/09 01:44:07;;;;;;;4.33;3.80;;;13.40;99.10;;;;;;5115115;28;21200;-68
2023/06/09 01:46:35;;;;;;;7.20;3.20;;;13.50;98.70;;;;;;5116072;28;20650;-69
2023/06/09 01:49:11;;;;;;;4.90;3.50;;;13.50;98.20;;;;;;5102579;28;20616;-68
2023/06/09 01:51:47;;;;;;;5.50;3.57;;;13.50;98.50;;;;;;5118211;28;20661;-68
2023/06/09 01:54:17;;;;;;;3.47;3.07;;;13.40;99.30;;;;;;5111894;28;20620;-68
2023/06/09 01:56:47;;;;;;;2.93;2.70;;;13.20;99.80;;;;;;5117914;28;21605;-68
2023/06/09 01:59:21;;;;;;;4.47;3.60;;;13.10;99.90;;;;;;5118921;28;20674;-68
2023/06/09 02:01:52;;;;;;;3.97;3.50;;;13.00;99.90;;;;;;5116995;28;21205;-68
2023/06/09 02:04:24;;;;;;;4.30;3.47;;;13.10;99.90;;;;;;5107437;28;20624;-68
2023/06/09 02:06:52;;;;;;;4.33;3.87;;;13.10;99.30;;;;;;5119483;28;20647;-69
2023/06/09 02:09:20;;;;;;;5.90;3.90;;;13.20;99.10;;;;;;5107343;28;21306;-68
2023/06/09 02:11:51;;;;;;;4.30;3.47;;;13.20;99.50;;;;;;5117522;27;20643;-68
2023/06/09 02:14:19;;;;;;;4.93;3.83;;;13.30;99.30;;;;;;5116181;27;21066;-68
2023/06/09 02:16:47;;;;;;;3.83;3.37;;;13.10;99.90;;;;;;5119681;27;20660;-69
2023/06/09 02:19:14;;;;;;;5.00;3.30;;;13.10;99.90;;;;;;5114288;27;21164;-68
2023/06/09 02:21:40;;;;;;;3.53;2.97;;;13.00;99.90;;;;;;5112086;27;20643;-68
2023/06/09 02:24:07;;;;;;;3.80;2.90;;;13.10;99.90;;;;;;5115122;27;20627;-69
2023/06/09 02:26:35;;;;;;;4.53;3.20;;;13.10;99.90;;;;;;5107205;27;21097;-69
2023/06/09 02:29:03;;;;;;;3.37;2.63;;;13.10;99.90;;;;;;5121581;27;20644;-69
2023/06/09 02:31:32;;;;;;;4.23;3.83;;;13.10;99.90;;;;;;5119877;27;20652;-68
2023/06/09 02:33:59;;;;;;;4.67;4.10;;;13.10;99.90;;;;;;5109174;27;20629;-68
2023/06/09 02:36:28;;;;;;;7.60;4.40;;;13.20;99.90;;;;;;5119994;27;20755;-68
2023/06/09 02:38:56;;;;;;;5.80;3.67;;;13.20;99.90;;;;;;5110789;27;20663;-68
2023/06/09 02:41:24;;;;;;;4.23;3.27;;;13.20;99.90;;;;;;5112542;27;20744;-69
2023/06/09 02:43:51;;;;;;;6.00;3.77;;;13.10;99.90;;;;;;5101083;27;20618;-68
2023/06/09 02:46:22;;;;;;;4.50;3.63;;;13.20;99.90;;;;;;5118716;27;20662;-68
2023/06/09 02:48:50;;;;;;;3.93;3.53;;;13.20;99.90;;;;;;5113305;27;20621;-68
2023/06/09 02:51:18;;;;;;;4.70;3.43;;;13.10;99.90;;;;;;5111865;27;20658;-68
2023/06/09 02:53:45;;;;;;;3.63;3.10;;;13.20;99.90;;;;;;5120876;27;20626;-68
2023/06/09 02:56:13;;;;;;;4.57;2.50;;;13.20;99.90;;;;;;5118179;27;20658;-68
2023/06/09 02:58:40;;;;;;;5.77;4.13;;;13.20;99.90;;;;;;5104399;27;20697;-68
2023/06/09 03:01:11;;;;;;;4.77;3.90;;;13.10;99.90;;;;;;5103896;27;20703;-68
2023/06/09 03:03:39;;;;;;;4.03;3.60;;;12.90;99.90;;;;;;5111458;27;20967;-69
2023/06/09 03:06:08;;;;;;;4.80;3.70;;;13.00;99.90;;;;;;5120680;27;20650;-68
2023/06/09 03:08:36;;;;;;;5.97;4.00;;;13.00;99.90;;;;;;5113334;27;20992;-68
2023/06/09 03:11:04;;;;;;;5.00;3.60;;;12.90;99.90;;;;;;5115830;27;21317;-68
2023/06/09 03:13:31;;;;;;;3.90;3.60;;;12.80;99.90;;;;;;5117713;27;20736;-68
2023/06/09 03:15:59;;;;;;;5.77;2.97;;;12.90;99.90;;;;;;5116612;27;20733;-68
2023/06/09 03:18:27;;;;;;;4.40;3.37;;;12.90;99.90;;;;;;5106297;27;20646;-68
2023/06/09 03:20:55;;;;;;;3.50;3.20;;;12.80;99.90;;;;;;5119633;27;20675;-68
2023/06/09 03:23:23;;;;;;;3.63;3.33;;;12.70;99.90;;;;;;5119175;27;21038;-68
2023/06/09 03:25:51;;;;;;;5.00;4.57;;;12.60;99.90;;;;;;5118001;27;20646;-68
2023/06/09 03:28:18;;;;;;;5.07;3.70;;;12.60;99.90;;;;;;5118367;27;20691;-68
2023/06/09 03:30:46;;;;;;;4.83;3.63;;;12.70;99.90;;;;;;5115102;27;20661;-68
2023/06/09 03:33:14;;;;;;;4.97;3.67;;;12.60;99.90;;;;;;5122043;27;20623;-68
2023/06/09 03:35:41;;;;;;;3.53;2.90;;;12.60;99.90;;;;;;5119132;27;20698;-68
2023/06/09 03:38:08;;;;;;;3.00;2.70;;;12.50;99.90;;;;;;5121195;27;21232;-68
2023/06/09 03:40:36;;;;;;;4.40;3.73;;;12.60;99.90;;;;;;5116032;27;20660;-68
2023/06/09 03:43:03;;;;;;;6.83;4.40;;;12.70;99.90;;;;;;5113914;27;20632;-68
2023/06/09 03:45:30;;;;;;;7.17;4.23;;;12.70;99.90;;;;;;5114664;27;21298;-68
2023/06/09 03:47:57;;;;;;;4.87;4.47;;;12.70;99.90;;;;;;5118626;27;20620;-68
2023/06/09 03:50:24;;;;;;;5.27;3.50;;;12.80;99.90;;;;;;5109155;27;20659;-68
2023/06/09 03:52:50;;;;;;;4.00;3.43;;;12.80;99.90;;;;;;5112196;27;20673;-68
2023/06/09 03:55:22;;;;;;;5.00;4.00;;;12.90;99.90;;;;;;5120981;27;20700;-68
2023/06/09 03:57:50;;;;;;;7.17;4.63;;;12.90;99.90;;;;;;5112103;27;20622;-68
2023/06/09 04:00:18;;;;;;;5.50;4.90;;;13.10;99.90;;;;;;5111240;27;20631;-68
2023/06/09 04:02:45;;;;;;;4.83;3.60;;;13.20;99.90;;;;;;5114437;27;21187;-68
2023/06/09 04:05:12;;;;;;;8.97;4.27;;;13.30;99.90;;;;;;5110717;27;20634;-68
2023/06/09 04:07:39;;;;;;;4.57;4.10;;;13.40;99.90;;;;;;5121194;27;20626;-68
2023/06/09 04:10:07;;;;;;;6.07;4.47;;;13.50;99.90;;;;;;5109932;27;20804;-68
2023/06/09 04:12:34;;;;;;;5.70;4.80;;;13.60;99.90;;;;;;5116873;27;20627;-68
2023/06/09 04:15:02;;;;;;;5.20;3.77;;;13.70;99.90;;;;;;5107447;27;20636;-68
2023/06/09 04:17:29;;;;;;;5.70;3.87;;;13.70;99.90;;;;;;5120723;27;21174;-68
2023/06/09 04:19:56;;;;;;;5.87;3.80;;;13.80;99.90;;;;;;5113416;27;20752;-68
2023/06/09 04:22:22;;;;;;;5.40;4.00;;;13.80;99.90;;;;;;5117096;27;21215;-68
2023/06/09 04:24:49;;;;;;;6.07;3.70;;;13.70;99.90;;;;;;5119717;27;20713;-68
2023/06/09 04:27:19;;;;;;;5.13;3.50;;;13.60;99.90;;;;;;5119048;27;20705;-68
2023/06/09 04:29:45;;;;;;;4.97;3.90;;;13.60;99.90;;;;;;5114924;27;20963;-68
2023/06/09 04:32:14;;;;;;;4.63;4.20;;;13.70;99.90;;;;;;5117558;27;20660;-69
2023/06/09 04:34:41;;;;;;;5.20;4.17;;;13.70;99.90;;;;;;5108097;27;20654;-68
2023/06/09 04:37:08;;;;;;;4.20;3.80;;;13.80;99.90;;;;;;5117090;27;20692;-68
2023/06/09 04:39:35;;;;;;;3.83;3.30;;;13.80;99.90;;;;;;5116230;27;21237;-68
2023/06/09 04:42:03;;;;;;;4.90;3.77;;;13.90;99.90;;;;;;5117654;27;20666;-68
2023/06/09 04:44:32;;;;;;;6.60;4.10;;;14.10;99.90;;;;;;5113326;27;21021;-68
2023/06/09 04:46:59;;;;;;;6.13;4.47;;;14.00;99.90;;;;;;5120292;27;21366;-69
2023/06/09 04:49:30;;;;;;;7.27;4.50;;;14.10;99.90;;;;;;5115524;27;20674;-69
2023/06/09 04:51:59;;;;;;;6.90;4.87;;;14.10;99.90;;;;;;5112310;27;21295;-68
2023/06/09 04:54:28;;;;;;;5.83;4.33;;;14.30;99.90;;;;;;5116597;27;20711;-68
2023/06/09 04:56:57;;;;;;;7.67;4.60;;;14.40;99.90;;;;;;5119094;27;20751;-68
2023/06/09 04:59:24;;;;;;;5.90;4.50;;;14.60;99.90;;;;;;5117484;27;20732;-68
2023/06/09 05:01:52;;;;;;;5.13;4.70;;;14.60;99.90;;;;;;5106933;27;20722;-69
2023/06/09 05:04:20;;;;;;;6.47;3.33;;;14.80;99.90;;;;;;5113050;27;20631;-69
2023/06/09 05:06:48;;;;;;;5.00;4.00;;;14.80;99.70;;;;;;5108684;27;20975;-69
2023/06/09 05:09:14;;;;;;;4.80;4.07;;;14.90;99.10;;;;;;5116180;27;20632;-68
2023/06/09 05:11:41;;;;;;;5.80;5.20;;;15.00;99.00;;;;;;5115765;27;20660;-69
2023/06/09 05:14:08;;;;;;;4.47;4.00;;;15.10;98.90;;;;;;5118354;27;20738;-69
2023/06/09 05:16:35;;;;;;;4.07;3.20;;;15.10;98.50;;;;;;5113427;28;20752;-68
2023/06/09 05:19:03;;;;;;;4.53;4.13;;;15.20;98.60;;;;;;5105371;27;20662;-69
2023/06/09 05:21:30;;;;;;;4.00;3.43;;;15.30;98.30;;;;;;5105568;27;20663;-69
2023/06/09 05:23:58;;;;;;;3.90;3.60;;;15.40;98.00;;;;;;5112256;27;20625;-69
2023/06/09 05:26:25;;;;;;;6.83;4.50;;;15.40;98.00;;;;;;5110562;27;20663;-69
2023/06/09 05:28:52;;;;;;;3.83;3.50;;;15.50;97.80;;;;;;5099170;28;21195;-70
2023/06/09 05:31:19;;;;;;;4.63;3.50;;;15.60;97.90;;;;;;5096298;28;21245;-70
2023/06/09 05:33:46;;;;;;;4.50;3.93;;;15.70;97.60;;;;;;5105252;28;20619;-70
2023/06/09 05:36:13;;;;;;;3.50;3.20;;;15.70;97.20;;;;;;5115277;28;21240;-70
2023/06/09 05:38:39;;;;;;;4.73;3.77;;;15.80;97.20;;;;;;5114186;28;20727;-69
2023/06/09 05:41:08;;;;;;;5.23;4.07;;;15.90;96.90;;;;;;5109367;28;20646;-68
2023/06/09 05:43:35;;;;;;;5.70;2.80;;;16.00;96.60;;;;;;5115940;28;20639;-68
2023/06/09 05:46:02;;;;;;;3.63;3.30;;;16.10;96.60;;;;;;5119812;27;20651;-68
2023/06/09 05:48:29;;;;;;;4.27;3.43;;;16.20;96.30;;;;;;5114921;27;20624;-68
2023/06/09 05:50:57;;;;;;;4.03;3.63;;;16.40;95.90;;;;;;5110772;27;20645;-68
2023/06/09 05:53:24;;;;;;;5.47;3.20;;;16.50;95.00;;;;;;5120316;27;20964;-68
2023/06/09 05:55:53;;;;;;;4.17;3.77;;;16.50;94.90;;;;;;5120043;27;20649;-68
2023/06/09 05:58:21;;;;;;;4.33;3.93;;;16.50;94.80;;;;;;5120598;27;20626;-68
2023/06/09 06:00:49;;;;;;;2.73;2.43;;;16.60;94.90;;;;;;5122222;27;20693;-68
2023/06/09 06:03:15;;;;;;;7.23;3.60;;;16.70;95.10;;;;;;5122174;27;20635;-68
2023/06/09 06:05:42;;;;;;;5.63;3.57;;;16.90;94.80;;;;;;5111456;27;20658;-68
2023/06/09 06:08:09;;;;;;;3.80;3.20;;;17.00;94.60;;;;;;5116808;27;20623;-68
2023/06/09 06:10:36;;;;;;;3.93;3.00;;;17.00;94.50;;;;;;5120874;27;20643;-68
2023/06/09 06:13:03;;;;;;;4.63;3.47;;;17.10;94.20;;;;;;5120444;27;20631;-68
2023/06/09 06:15:32;;;;;;;3.80;3.40;;;17.30;94.00;;;;;;5115588;27;20705;-68
2023/06/09 06:17:58;;;;;;;3.93;3.33;;;17.40;93.60;;;;;;5109221;27;20636;-68
2023/06/09 06:20:26;;;;;;;3.37;3.07;;;17.50;93.60;;;;;;5105125;27;20669;-68
2023/06/09 06:22:53;;;;;;;3.03;2.80;;;17.50;93.00;;;;;;5108305;27;20655;-68
2023/06/09 06:25:20;;;;;;;3.30;2.90;;;17.70;93.60;;;;;;5118419;27;20627;-68
2023/06/09 06:27:47;;;;;;;3.77;3.47;;;17.80;92.80;;;;;;5125851;27;20616;-68
2023/06/09 06:30:14;;;;;;;3.77;3.40;;;17.80;92.30;;;;;;5112750;27;21217;-68
2023/06/09 06:32:51;;;;;;;4.07;2.60;;;17.80;92.70;;;;;;5116817;27;20619;-68
2023/06/09 06:35:25;;;;;;;3.53;3.23;;;17.90;93.30;;;;;;5110325;27;21181;-68
2023/06/09 06:37:52;;;;;;;3.87;3.50;;;18.10;93.20;;;;;;5101131;27;20639;-68
2023/06/09 06:40:18;;;;;;;3.50;3.10;;;18.30;92.50;;;;;;5114485;27;20674;-68
2023/06/09 06:42:45;;;;;;;3.27;2.83;;;18.30;91.70;;;;;;5106574;27;20957;-68
2023/06/09 06:45:12;;;;;;;3.67;3.20;;;18.40;91.90;;;;;;5110475;27;20631;-68
2023/06/09 06:47:41;;;;;;;4.17;3.27;;;18.60;91.40;;;;;;5114681;27;20638;-68
2023/06/09 06:50:10;;;;;;;5.17;4.50;;;18.70;90.50;;;;;;5119724;27;20622;-68
2023/06/09 06:52:37;;;;;;;2.60;2.40;;;18.70;90.20;;;;;;5118590;27;20814;-68
2023/06/09 06:55:05;;;;;;;4.10;3.20;;;18.80;89.80;;;;;;5117488;27;20604;-68
2023/06/09 06:57:31;;;;;;;4.00;3.40;;;18.80;90.00;;;;;;5110120;27;20616;-68
2023/06/09 06:59:58;;;;;;;3.23;2.90;;;18.90;89.10;;;;;;5117070;27;20660;-68
2023/06/09 07:02:25;;;;;;;3.80;2.90;;;18.90;89.40;;;;;;5117580;27;21134;-68
2023/06/09 07:04:52;;;;;;;3.60;2.87;;;19.10;88.70;;;;;;5104625;27;21172;-68
2023/06/09 07:07:20;;;;;;;3.10;2.90;;;19.20;87.40;;;;;;5111211;27;20665;-68
2023/06/09 07:09:47;;;;;;;2.60;2.40;;;19.30;88.50;;;;;;5111583;27;21024;-68
2023/06/09 07:12:14;;;;;;;2.70;2.50;;;19.50;85.90;;;;;;5109761;27;20762;-68
2023/06/09 07:14:40;;;;;;;3.50;2.37;;;19.60;85.20;;;;;;5115499;27;20627;-68
2023/06/09 07:17:07;;;;;;;2.50;2.30;;;19.70;84.60;;;;;;5112561;27;20759;-68
2023/06/09 07:19:35;;;;;;;3.10;2.43;;;19.70;85.20;;;;;;5121406;27;20659;-68
2023/06/09 07:22:02;;;;;;;3.60;2.77;;;19.90;86.40;;;;;;5109588;27;20681;-68
2023/06/09 07:24:30;;;;;;;3.17;2.50;;;20.10;82.00;;;;;;5111370;27;20624;-70
2023/06/09 07:26:57;;;;;;;2.47;2.27;;;20.30;80.70;;;;;;5111326;27;20655;-68
2023/06/09 07:29:23;;;;;;;2.80;2.40;;;20.20;79.40;;;;;;5109476;27;20632;-68
2023/06/09 07:31:50;;;;;;;3.23;2.80;;;20.30;79.70;;;;;;5113768;27;20655;-69
2023/06/09 07:34:17;;;;;;;2.60;2.40;;;20.40;79.00;;;;;;5120700;27;20621;-69
2023/06/09 07:36:44;;;;;;;2.70;2.50;;;20.50;79.20;;;;;;5117031;27;20997;-69
2023/06/09 07:39:11;;;;;;;2.30;2.20;;;20.60;78.90;;;;;;5106305;27;20665;-69
2023/06/09 07:41:39;;;;;;;3.13;2.83;;;20.80;78.10;;;;;;5114233;27;20644;-69
2023/06/09 07:44:06;;;;;;;3.10;2.53;;;20.90;78.50;;;;;;5112015;27;20628;-70
2023/06/09 07:46:33;;;;;;;2.73;2.50;;;21.00;77.50;;;;;;5117666;27;20664;-70
2023/06/09 07:49:00;;;;;;;3.27;2.80;;;21.10;77.60;;;;;;5118577;27;20623;-69
2023/06/09 07:51:29;;;;;;;2.67;2.47;;;21.40;77.60;;;;;;5115809;27;20752;-69
2023/06/09 07:53:55;;;;;;;2.40;2.20;;;21.50;75.00;;;;;;5112811;27;20620;-70
2023/06/09 07:56:22;;;;;;;2.80;2.60;;;21.50;73.50;;;;;;5110935;27;20701;-70
2023/06/09 07:58:52;;;;;;;2.40;2.17;;;21.60;71.90;;;;;;5113047;27;20707;-70
2023/06/09 08:01:24;;;;;;;2.37;2.17;;;21.60;73.40;;;;;;5121180;27;20658;-69
2023/06/09 08:03:55;;;;;;;3.43;2.60;;;21.80;70.40;;;;;;5116770;27;20619;-70
2023/06/09 08:06:22;;;;;;;2.83;2.40;;;21.80;72.50;;;;;;5108875;27;21013;-70
2023/06/09 08:08:49;;;;;;;3.60;3.20;;;21.90;70.70;;;;;;5110748;27;20655;-69
2023/06/09 08:11:16;;;;;;;2.47;2.27;;;22.00;72.60;;;;;;5107868;27;20677;-70
2023/06/09 08:13:43;;;;;;;2.87;2.57;;;22.20;71.40;;;;;;5109750;27;20621;-70
2023/06/09 08:16:11;;;;;;;2.33;2.10;;;22.30;70.50;;;;;;5118225;27;20648;-70
2023/06/09 08:18:38;;;;;;;2.90;2.70;;;22.40;71.20;;;;;;5116509;27;20627;-70
2023/06/09 08:21:06;;;;;;;2.90;2.10;;;22.50;69.00;;;;;;5108723;27;20672;-70
2023/06/09 08:23:32;;;;;;;2.60;2.40;;;22.70;67.80;;;;;;5108009;27;20625;-70
2023/06/09 08:25:59;;;;;;;2.17;1.97;;;22.70;68.00;;;;;;5106295;27;20652;-69
2023/06/09 08:28:26;;;;;;;2.90;2.70;;;22.80;67.90;;;;;;5112637;27;20628;-68
2023/06/09 08:30:53;;;;;;;2.47;2.07;;;22.80;67.80;;;;;;5115037;27;20662;-68
2023/06/09 08:33:21;;;;;;;2.80;2.40;;;22.90;68.20;;;;;;5112841;27;20623;-68
2023/06/09 08:35:48;;;;;;;2.80;2.10;;;23.00;68.60;;;;;;5109611;27;20655;-68
2023/06/09 08:38:14;;;;;;;2.07;1.97;;;23.10;67.10;;;;;;5120445;27;20612;-68
2023/06/09 08:40:41;;;;;;;2.70;2.50;;;23.10;67.30;;;;;;5115621;27;20668;-68
2023/06/09 08:43:08;;;;;;;3.73;2.80;;;23.20;67.90;;;;;;5108682;27;20658;-68
2023/06/09 08:45:35;;;;;;;2.20;2.00;;;23.30;66.60;;;;;;5116188;27;20654;-68
2023/06/09 08:48:03;;;;;;;2.23;2.03;;;23.40;66.70;;;;;;5116799;27;21219;-68
2023/06/09 08:50:34;;;;;;;3.63;3.33;;;23.50;66.70;;;;;;5114907;27;20651;-69
2023/06/09 08:53:01;;;;;;;2.40;2.07;;;23.60;63.90;;;;;;5108812;27;20622;-68
2023/06/09 08:55:29;;;;;;;3.17;2.70;;;23.60;64.80;;;;;;5110338;27;21049;-68
2023/06/09 08:57:55;;;;;;;2.20;2.00;;;23.70;62.30;;;;;;5112312;27;21197;-68
2023/06/09 09:00:23;;;;;;;2.03;1.93;;;23.80;63.60;;;;;;5103305;28;20662;-68
2023/06/09 09:02:50;;;;;;;3.20;2.17;;;23.90;63.40;;;;;;5113849;27;21231;-68
2023/06/09 09:05:17;;;;;;;2.40;2.20;;;24.10;64.00;;;;;;5117254;27;20623;-68
2023/06/09 09:07:45;;;;;;;2.00;1.80;;;24.10;61.30;;;;;;5105066;27;20634;-68
2023/06/09 09:10:12;;;;;;;2.17;1.97;;;24.10;61.30;;;;;;5111555;27;20628;-68
2023/06/09 09:12:49;;;;;;;2.17;1.97;;;24.00;62.10;;;;;;5102800;27;20808;-68
2023/06/09 09:15:15;;;;;;;3.13;2.40;;;24.10;60.90;;;;;;5104040;27;20635;-68
2023/06/09 09:17:42;;;;;;;2.50;2.27;;;24.10;61.10;;;;;;5105611;27;20601;-68
2023/06/09 09:20:10;;;;;;;2.20;2.00;;;24.30;61.10;;;;;;5103868;27;21095;-68
2023/06/09 09:22:46;;;;;;;2.53;2.33;;;24.30;61.40;;;;;;5101008;27;20967;-67
2023/06/09 09:25:22;;;;;;;2.57;2.37;;;24.60;60.90;;;;;;5097676;27;20637;-66
2023/06/09 09:28:03;;;;;;;2.00;1.90;;;24.70;60.30;;;;;;5094702;28;20635;-67
2023/06/09 09:30:47;;;;;;;2.10;2.00;;;24.80;60.80;;;;;;5097691;28;21026;-66
2023/06/09 09:33:16;;;;;;;2.30;2.10;;;24.90;61.60;;;;;;5099019;28;21064;-67
2023/06/09 09:35:48;;;;;;;2.73;2.53;;;24.90;62.10;;;;;;5104511;28;20643;-66
2023/06/09 09:38:18;;;;;;;3.30;2.30;;;24.90;60.20;;;;;;5098630;28;21185;-67
2023/06/09 09:40:46;;;;;;;3.20;2.90;;;25.00;59.70;;;;;;5098759;28;20671;-67
2023/06/09 09:43:13;;;;;;;2.70;2.50;;;25.20;59.50;;;;;;5098577;28;21181;-67
2023/06/09 09:45:43;;;;;;;3.00;2.50;;;25.40;60.40;;;;;;5097782;28;21006;-67
2023/06/09 09:48:12;;;;;;;3.43;3.13;;;25.50;59.80;;;;;;5114472;28;20704;-67
2023/06/09 09:50:39;;;;;;;2.23;2.13;;;25.50;59.40;;;;;;5107284;28;21003;-67
2023/06/09 09:53:07;;;;;;;2.20;2.00;;;25.60;59.50;;;;;;5102771;28;20627;-67
2023/06/09 09:55:37;;;;;;;2.63;2.43;;;25.70;59.20;;;;;;5110625;28;20648;-67
2023/06/09 09:58:06;;;;;;;2.43;2.23;;;25.80;60.20;;;;;;5117272;28;20628;-67
2023/06/09 10:00:35;;;;;;;2.60;2.03;;;25.90;59.40;;;;;;5106331;28;20704;-67
2023/06/09 10:03:06;;;;;;;2.90;2.07;;;25.90;58.20;;;;;;5113334;28;20711;-67
2023/06/09 10:05:36;;;;;;;4.30;2.27;;;26.00;58.30;;;;;;5116145;28;20708;-67
2023/06/09 10:08:05;;;;;;;1.50;1.40;;;26.20;57.20;;;;;;5110482;28;20626;-67
2023/06/09 10:10:32;;;;;;;2.17;1.97;;;26.50;56.60;;;;;;5113408;28;21125;-67
2023/06/09 10:13:02;;;;;;;1.93;1.80;;;26.30;55.70;;;;;;5124581;28;20618;-67
2023/06/09 10:15:30;;;;;;;1.97;1.87;;;26.20;56.00;;;;;;5113597;27;20721;-68
2023/06/09 10:17:58;;;;;;;2.70;2.37;;;26.10;56.50;;;;;;5116847;28;20625;-69
2023/06/09 10:20:25;;;;;;;2.20;2.00;;;26.20;56.20;;;;;;5107010;28;20868;-68
2023/06/09 10:22:52;;;;;;;3.47;1.90;;;26.50;55.50;;;;;;5108939;28;20634;-68
2023/06/09 10:25:20;;;;;;;2.27;2.10;;;26.70;56.00;;;;;;5116442;28;20626;-68
2023/06/09 10:27:49;;;;;;;2.57;2.37;;;26.80;54.50;;;;;;5114816;28;20726;-68
2023/06/09 10:30:18;;;;;;;1.70;1.60;;;26.80;53.90;;;;;;5120266;27;20629;-68
2023/06/09 10:32:52;;;;;;;2.03;1.83;;;26.80;53.70;;;;;;5115985;27;20623;-68
2023/06/09 10:35:24;;;;;;;1.70;1.60;;;26.80;53.40;;;;;;5120386;27;20627;-68
2023/06/09 10:37:51;;;;;;;1.73;1.63;;;26.80;53.00;;;;;;5120285;27;21233;-68
2023/06/09 10:40:25;;;;;;;2.10;1.47;;;26.90;53.20;;;;;;5108196;27;21085;-68
2023/06/09 10:43:03;;;;;;;1.63;1.53;;;27.00;52.30;;;;;;5111800;27;20619;-68
2023/06/09 10:45:51;;;;;;;2.03;1.83;;;27.30;51.90;;;;;;5116541;27;20647;-68
2023/06/09 10:48:50;;;;;;;2.13;1.70;;;27.20;51.80;;;;;;5109889;27;21295;-68
2023/06/09 10:51:41;;;;;;;1.67;1.57;;;27.60;51.80;;;;;;5111168;27;20683;-68
2023/06/09 10:54:35;;;;;;;1.83;1.67;;;27.70;51.60;;;;;;5111163;27;20992;-68
2023/06/09 10:57:03;;;;;;;1.47;1.37;;;27.70;50.90;;;;;;5099561;27;20844;-68
2023/06/09 11:00:09;;;;;;;1.70;1.60;;;27.60;51.20;;;;;;5122022;27;20629;-68
2023/06/09 11:02:37;;;;;;;1.70;1.60;;;27.90;52.30;;;;;;5113757;27;21047;-68
2023/06/09 11:05:05;;;;;;;1.67;1.57;;;28.00;50.30;;;;;;5121247;27;20631;-68
2023/06/09 11:07:39;;;;;;;2.20;1.60;;;28.10;50.50;;;;;;5121943;27;20626;-68
2023/06/09 11:10:39;;;;;;;1.77;1.67;;;28.40;50.90;;;;;;5107123;27;20700;-68
2023/06/09 11:13:38;;;;;;;2.10;1.67;;;28.50;50.00;;;;;;5119194;27;21159;-68
2023/06/09 11:16:05;;;;;;;1.23;1.13;;;28.50;50.40;;;;;;5118550;27;20694;-68
2023/06/09 11:18:33;;;;;;;1.93;1.73;;;28.60;49.10;;;;;;5120801;27;20625;-68
2023/06/09 11:21:23;;;;;;;2.07;1.47;;;28.70;48.20;;;;;;5114830;27;20677;-68
2023/06/09 11:24:00;;;;;;;1.90;1.80;;;29.00;48.60;;;;;;5108728;27;20626;-68
2023/06/09 11:26:27;;;;;;;1.63;1.53;;;29.20;49.00;;;;;;5119249;27;20655;-68
2023/06/09 11:28:54;;;;;;;2.10;1.70;;;29.40;48.10;;;;;;5114761;27;20974;-68
2023/06/09 11:31:21;;;;;;;1.40;1.30;;;29.50;47.00;;;;;;5119733;27;21246;-68
2023/06/09 11:33:55;;;;;;;1.83;1.70;;;29.60;47.30;;;;;;5118539;27;21068;-68
2023/06/09 11:36:30;;;;;;;1.27;1.20;;;29.70;46.60;;;;;;5114449;27;20651;-68
2023/06/09 11:39:03;;;;;;;2.03;1.87;;;30.10;45.60;;;;;;5117483;27;20644;-68
2023/06/09 11:41:31;;;;;;;1.87;1.77;;;30.30;45.90;;;;;;5118460;27;20656;-68
2023/06/09 11:43:58;;;;;;;1.60;1.50;;;30.40;46.70;;;;;;5121229;27;20642;-68
2023/06/09 11:46:25;;;;;;;2.23;2.03;;;30.90;46.60;;;;;;5121379;27;20643;-68
2023/06/09 11:49:05;;;;;;;1.87;1.77;;;31.00;45.50;;;;;;5115910;27;21128;-69
2023/06/09 11:51:59;;;;;;;1.90;1.80;;;31.30;46.70;;;;;;5114870;27;21224;-69
2023/06/09 11:54:45;;;;;;;1.20;1.20;;;31.90;46.50;;;;;;5113603;27;20674;-69
2023/06/09 11:57:14;;;;;;;1.80;1.70;;;32.50;45.50;;;;;;5110877;27;20656;-69
2023/06/09 11:59:40;;;;;;;1.97;1.87;;;32.80;43.40;;;;;;5121897;27;20630;-69
2023/06/09 12:02:07;;;;;;;2.00;1.90;;;33.60;43.00;;;;;;5111464;27;20671;-69
2023/06/09 12:04:42;;;;;;;1.97;1.87;;;33.80;42.60;;;;;;5121185;27;20691;-67
2023/06/09 12:07:17;;;;;;;1.50;1.40;;;34.40;41.90;;;;;;5118714;27;20920;-67
2023/06/09 12:09:44;;;;;;;1.73;1.63;;;35.20;41.40;;;;;;5116334;27;20612;-67
2023/06/09 12:12:11;;;;;;;1.63;1.53;;;36.00;41.80;;;;;;5117828;27;20792;-67
2023/06/09 12:14:38;;;;;;;1.83;1.73;;;36.40;40.90;;;;;;5110927;27;20207;-67
2023/06/09 12:17:06;;;;;;;2.05;1.95;;;37.00;40.10;;;;;;5113873;27;20217;-68
2023/06/09 12:19:33;;;;;;;2.17;2.08;;;37.00;38.30;;;;;;5114313;27;20190;-68
2023/06/09 12:22:02;;;;;;;2.28;2.15;;;36.80;38.70;;;;;;5116868;27;20223;-68
2023/06/09 12:24:31;;;;;;;2.17;1.98;;;37.10;38.90;;;;;;5106810;27;20584;-68
2023/06/09 12:26:58;;;;;;;2.20;2.10;;;37.10;38.90;;;;;;5112922;27;20243;-69
2023/06/09 12:29:27;;;;;;;2.80;1.85;;;36.80;38.00;;;;;;5105334;27;20198;-68
2023/06/09 12:31:54;;;;;;;2.03;1.90;;;36.00;38.80;;;;;;5119940;27;20240;-69
2023/06/09 12:34:25;;;;;;;1.88;1.77;;;36.30;39.20;;;;;;5120068;27;20696;-69
2023/06/09 12:36:52;;;;;;;1.90;1.80;;;36.60;38.60;;;;;;5116629;27;20228;-69
2023/06/09 12:39:22;;;;;;;1.70;1.60;;;37.20;38.10;;;;;;5114035;27;20756;-69
2023/06/09 12:41:49;;;;;;;2.45;2.25;;;37.40;38.00;;;;;;5109148;27;20232;-69
2023/06/09 12:44:23;;;;;;;1.95;1.85;;;37.60;38.00;;;;;;5120186;27;20207;-69
2023/06/09 12:46:55;;;;;;;2.10;2.00;;;37.10;36.70;;;;;;5117605;27;20224;-68
2023/06/09 12:49:30;;;;;;;2.95;2.83;;;37.00;37.90;;;;;;5112573;27;20254;-67
2023/06/09 12:51:57;;;;;;;1.98;1.88;;;37.10;37.40;;;;;;5114270;27;20302;-68
2023/06/09 12:54:27;;;;;;;2.00;1.87;;;35.80;38.00;;;;;;5119229;27;20193;-68
2023/06/09 12:56:54;;;;;;;2.00;1.90;;;34.60;38.20;;;;;;5117296;27;20221;-68
2023/06/09 12:59:21;;;;;;;2.30;1.87;;;33.30;38.90;;;;;;5118612;27;20619;-67